createdAt,value
2022-08-29T00:01:13.463Z,72.25
2022-08-29T00:03:31.929Z,73.23
2022-08-29T00:05:50.126Z,73.71
2022-08-29T00:08:07.580Z,74.26
2022-08-29T00:10:24.997Z,73.24
2022-08-29T00:12:42.304Z,74.60
2022-08-29T00:14:59.244Z,73.06
2022-08-29T00:17:16.578Z,74.88
2022-08-29T00:19:34.423Z,74.40
2022-08-29T00:21:51.454Z,74.22
2022-08-29T00:24:08.962Z,74.04
2022-08-29T00:26:27.118Z,75.41
2022-08-29T00:28:50.043Z,75.68
2022-08-29T00:31:07.079Z,74.90
2022-08-29T00:33:24.292Z,74.93
2022-08-29T00:35:41.774Z,74.65
2022-08-29T00:37:58.778Z,74.68
2022-08-29T00:40:17.160Z,74.05
2022-08-29T00:42:34.262Z,74.24
2022-08-29T00:44:51.322Z,75.77
2022-08-29T00:47:08.774Z,74.37
2022-08-29T00:49:26.039Z,74.17
2022-08-29T00:51:43.065Z,74.28
2022-08-29T00:54:00.074Z,73.84
2022-08-29T00:56:17.517Z,75.05
2022-08-29T00:58:35.485Z,74.94
2022-08-29T01:00:52.647Z,74.31
2022-08-29T01:03:10.018Z,74.93
2022-08-29T01:05:27.136Z,76.07
2022-08-29T01:07:47.131Z,74.52
2022-08-29T01:10:13.269Z,76.21
2022-08-29T01:12:31.005Z,74.77
2022-08-29T01:14:48.115Z,75.08
2022-08-29T01:17:05.430Z,76.62
2022-08-29T01:19:23.422Z,76.05
2022-08-29T01:21:45.018Z,77.38
2022-08-29T01:24:02.023Z,76.09
2022-08-29T01:26:20.495Z,77.16
2022-08-29T01:28:37.747Z,77.23
2022-08-29T01:30:56.001Z,76.66
2022-08-29T01:33:13.058Z,75.65
2022-08-29T01:35:32.205Z,76.50
2022-08-29T01:37:50.647Z,77.01
2022-08-29T01:40:07.706Z,76.79
2022-08-29T01:42:24.774Z,77.03
2022-08-29T01:44:41.888Z,76.50
2022-08-29T01:47:03.075Z,75.63
2022-08-29T01:49:20.578Z,77.31
2022-08-29T01:51:37.678Z,75.75
2022-08-29T01:53:54.587Z,76.05
2022-08-29T01:56:11.510Z,76.85
2022-08-29T01:58:28.802Z,77.56
2022-08-29T02:00:46.168Z,77.11
2022-08-29T02:03:04.209Z,77.44
2022-08-29T02:05:21.530Z,76.89
2022-08-29T02:07:39.594Z,76.50
2022-08-29T02:09:56.501Z,76.89
2022-08-29T02:12:13.498Z,77.43
2022-08-29T02:14:30.740Z,76.72
2022-08-29T02:16:47.867Z,76.45
2022-08-29T02:19:04.997Z,77.89
2022-08-29T02:21:21.922Z,76.40
2022-08-29T02:23:39.018Z,77.54
2022-08-29T02:25:57.393Z,77.57
2022-08-29T02:28:15.639Z,76.48
2022-08-29T02:30:32.866Z,76.15
2022-08-29T02:32:49.793Z,76.64
2022-08-29T02:35:07.670Z,77.94
2022-08-29T02:37:28.157Z,77.20
2022-08-29T02:39:45.505Z,78.08
2022-08-29T02:42:03.917Z,77.75
2022-08-29T02:44:21.182Z,76.83
2022-08-29T02:46:39.044Z,77.08
2022-08-29T02:49:00.481Z,77.80
2022-08-29T02:51:18.735Z,78.14
2022-08-29T02:53:35.916Z,77.54
2022-08-29T02:55:53.952Z,78.16
2022-08-29T02:58:10.942Z,78.50
2022-08-29T03:00:28.136Z,78.45
2022-08-29T03:02:45.313Z,77.45
2022-08-29T03:05:02.313Z,77.01
2022-08-29T03:07:20.353Z,76.78
2022-08-29T03:09:38.431Z,77.02
2022-08-29T03:11:55.771Z,77.18
2022-08-29T03:14:12.857Z,77.61
2022-08-29T03:16:33.096Z,78.27
2022-08-29T03:18:50.445Z,77.45
2022-08-29T03:21:08.105Z,77.16
2022-08-29T03:23:26.433Z,78.04
2022-08-29T03:25:43.440Z,78.17
2022-08-29T03:28:00.740Z,78.55
2022-08-29T03:30:18.007Z,78.21
2022-08-29T03:32:35.036Z,78.11
2022-08-29T03:34:51.998Z,78.16
2022-08-29T03:37:09.048Z,77.81
2022-08-29T03:39:26.061Z,78.69
2022-08-29T03:41:43.066Z,78.77
2022-08-29T03:44:00.123Z,78.65
2022-08-29T03:46:17.383Z,79.38
2022-08-29T03:48:34.429Z,78.37
2022-08-29T03:50:55.844Z,78.53
2022-08-29T03:53:13.797Z,78.81
2022-08-29T03:55:31.144Z,78.54
2022-08-29T03:57:48.453Z,79.03
2022-08-29T04:00:07.978Z,78.69
2022-08-29T04:02:26.013Z,78.71
2022-08-29T04:04:44.936Z,78.93
2022-08-29T04:07:02.939Z,78.50
2022-08-29T04:09:20.288Z,78.58
2022-08-29T04:11:37.331Z,78.81
2022-08-29T04:13:54.593Z,78.48
2022-08-29T04:16:11.716Z,78.83
2022-08-29T04:18:28.761Z,78.72
2022-08-29T04:20:45.704Z,78.04
2022-08-29T04:23:03.027Z,77.41
2022-08-29T04:25:19.993Z,79.01
2022-08-29T04:27:37.236Z,77.96
2022-08-29T04:29:55.292Z,79.31
2022-08-29T04:32:12.373Z,77.94
2022-08-29T04:34:29.436Z,78.16
2022-08-29T04:36:46.527Z,78.94
2022-08-29T04:39:03.440Z,78.86
2022-08-29T04:41:20.361Z,79.48
2022-08-29T04:43:37.271Z,79.39
2022-08-29T04:45:54.609Z,79.33
2022-08-29T04:48:11.937Z,78.72
2022-08-29T04:50:28.918Z,78.62
2022-08-29T04:52:45.924Z,79.63
2022-08-29T04:55:03.223Z,79.64
2022-08-29T04:57:21.213Z,79.09
2022-08-29T04:59:38.806Z,78.45
2022-08-29T05:01:56.120Z,80.26
2022-08-29T05:04:14.653Z,78.79
2022-08-29T05:06:32.031Z,79.23
2022-08-29T05:08:48.965Z,79.13
2022-08-29T05:11:16.321Z,78.73
2022-08-29T05:13:40.233Z,78.45
2022-08-29T05:16:00.037Z,78.96
2022-08-29T05:18:18.391Z,78.33
2022-08-29T05:20:35.452Z,78.71
2022-08-29T05:22:52.716Z,80.05
2022-08-29T05:25:11.568Z,79.14
2022-08-29T05:27:31.545Z,78.10
2022-08-29T05:29:48.619Z,79.18
2022-08-29T05:32:05.827Z,79.50
2022-08-29T05:34:34.742Z,78.15
2022-08-29T05:36:52.466Z,77.31
2022-08-29T05:39:09.463Z,77.31
2022-08-29T05:41:30.956Z,77.90
2022-08-29T05:43:55.605Z,76.82
2022-08-29T05:46:12.679Z,76.92
2022-08-29T05:48:30.014Z,76.42
2022-08-29T05:50:48.287Z,77.78
2022-08-29T05:53:05.369Z,77.09
2022-08-29T05:55:22.487Z,77.17
2022-08-29T05:57:39.503Z,74.69
2022-08-29T05:59:56.538Z,76.57
2022-08-29T06:02:13.547Z,75.66
2022-08-29T06:04:30.704Z,74.72
2022-08-29T06:06:47.592Z,75.16
2022-08-29T06:09:04.506Z,74.37
2022-08-29T06:11:21.483Z,75.00
2022-08-29T06:13:38.422Z,74.82
2022-08-29T06:15:55.440Z,73.57
2022-08-29T06:18:12.725Z,73.31
2022-08-29T06:20:29.824Z,74.48
2022-08-29T06:22:47.090Z,73.63
2022-08-29T06:25:21.791Z,72.43
2022-08-29T06:27:41.658Z,71.54
2022-08-29T06:30:01.722Z,69.78
2022-08-29T06:32:19.100Z,69.59
2022-08-29T06:34:36.248Z,67.92
2022-08-29T06:36:53.197Z,67.74
2022-08-29T06:39:10.541Z,67.99
2022-08-29T06:41:27.900Z,67.55
2022-08-29T06:43:44.865Z,67.71
2022-08-29T06:46:01.902Z,67.07
2022-08-29T06:48:19.210Z,66.49
2022-08-29T06:50:36.235Z,66.60
2022-08-29T06:52:55.615Z,65.17
2022-08-29T06:55:13.048Z,64.48
2022-08-29T06:57:32.091Z,65.36
2022-08-29T06:59:49.165Z,64.85
2022-08-29T07:02:06.208Z,63.33
2022-08-29T07:04:26.468Z,63.86
2022-08-29T07:06:44.169Z,63.79
2022-08-29T07:09:02.173Z,63.91
2022-08-29T07:11:19.262Z,61.91
2022-08-29T07:13:36.531Z,61.30
2022-08-29T07:15:53.762Z,62.43
2022-08-29T07:18:10.898Z,63.26
2022-08-29T07:20:27.893Z,62.20
2022-08-29T07:22:44.834Z,61.95
2022-08-29T07:25:02.102Z,62.44
2022-08-29T07:27:19.348Z,62.56
2022-08-29T07:29:36.433Z,60.03
2022-08-29T07:31:53.465Z,60.80
2022-08-29T07:34:10.511Z,59.25
2022-08-29T07:36:27.570Z,60.66
2022-08-29T07:38:44.718Z,60.78
2022-08-29T07:41:01.797Z,59.17
2022-08-29T07:43:20.471Z,58.53
2022-08-29T07:45:39.586Z,58.72
2022-08-29T07:47:56.780Z,56.89
2022-08-29T07:50:13.986Z,56.24
2022-08-29T07:52:31.301Z,55.39
2022-08-29T07:54:48.620Z,55.28
2022-08-29T07:57:05.567Z,55.45
2022-08-29T07:59:22.771Z,53.69
2022-08-29T08:01:39.739Z,54.78
2022-08-29T08:03:57.254Z,53.42
2022-08-29T08:06:14.601Z,52.82
2022-08-29T08:08:31.778Z,52.31
2022-08-29T08:10:52.192Z,51.47
2022-08-29T08:13:09.418Z,52.83
2022-08-29T08:15:26.409Z,52.69
2022-08-29T08:17:44.944Z,53.16
2022-08-29T08:20:01.993Z,53.22
2022-08-29T08:22:18.969Z,52.78
2022-08-29T08:24:36.321Z,52.13
2022-08-29T08:26:53.343Z,51.44
2022-08-29T08:29:10.453Z,52.06
2022-08-29T08:31:27.581Z,52.59
2022-08-29T08:33:45.203Z,52.16
2022-08-29T08:36:02.497Z,52.58
2022-08-29T08:38:20.161Z,51.29
2022-08-29T08:40:37.500Z,52.87
2022-08-29T08:42:54.692Z,51.06
2022-08-29T08:45:11.761Z,52.19
2022-08-29T08:47:28.737Z,50.20
2022-08-29T08:49:46.087Z,50.00
2022-08-29T08:52:04.087Z,49.70
2022-08-29T08:54:21.139Z,48.85
2022-08-29T08:56:38.495Z,48.37
2022-08-29T08:58:55.493Z,48.16
2022-08-29T09:01:13.532Z,47.73
2022-08-29T09:03:30.620Z,48.16
2022-08-29T09:05:49.319Z,47.44
2022-08-29T09:08:06.548Z,47.19
2022-08-29T09:10:23.876Z,47.35
2022-08-29T09:12:40.916Z,46.89
2022-08-29T09:14:58.909Z,46.29
2022-08-29T09:17:16.249Z,45.17
2022-08-29T09:19:33.235Z,46.87
2022-08-29T09:21:50.623Z,45.32
2022-08-29T09:24:07.896Z,45.16
2022-08-29T09:26:25.167Z,45.36
2022-08-29T09:28:42.228Z,44.48
2022-08-29T09:30:59.369Z,44.96
2022-08-29T09:33:17.781Z,44.72
2022-08-29T09:35:36.113Z,44.57
2022-08-29T09:37:53.152Z,44.17
2022-08-29T09:40:10.227Z,44.35
2022-08-29T09:42:28.680Z,42.69
2022-08-29T09:44:45.539Z,42.87
2022-08-29T09:47:02.565Z,43.19
2022-08-29T09:49:20.579Z,40.99
2022-08-29T09:51:37.545Z,42.19
2022-08-29T09:53:54.871Z,42.55
2022-08-29T09:56:13.162Z,42.20
2022-08-29T09:58:30.236Z,42.75
2022-08-29T10:00:47.245Z,42.50
2022-08-29T10:03:04.296Z,42.63
2022-08-29T10:05:22.074Z,42.30
2022-08-29T10:07:40.009Z,42.13
2022-08-29T10:09:57.642Z,40.75
2022-08-29T10:12:14.845Z,40.47
2022-08-29T10:14:31.891Z,40.65
2022-08-29T10:16:49.906Z,40.54
2022-08-29T10:19:07.574Z,40.40
2022-08-29T10:21:24.653Z,40.86
2022-08-29T10:23:41.688Z,39.96
2022-08-29T10:25:58.670Z,40.10
2022-08-29T10:28:16.752Z,40.37
2022-08-29T10:30:33.818Z,40.46
2022-08-29T10:32:50.871Z,39.79
2022-08-29T10:35:08.249Z,39.55
2022-08-29T10:37:25.283Z,39.99
2022-08-29T10:39:42.539Z,39.46
2022-08-29T10:42:00.265Z,38.57
2022-08-29T10:46:39.055Z,39.23
2022-08-29T10:48:56.087Z,38.67
2022-08-29T10:51:13.462Z,38.76
2022-08-29T10:53:34.575Z,39.35
2022-08-29T10:55:51.883Z,38.37
2022-08-29T10:58:12.626Z,38.81
2022-08-29T11:00:30.877Z,37.73
2022-08-29T11:02:47.906Z,38.69
2022-08-29T11:05:07.531Z,38.65
2022-08-29T11:07:25.853Z,38.64
2022-08-29T11:09:42.910Z,37.85
2022-08-29T11:11:59.815Z,37.87
2022-08-29T11:14:16.814Z,37.81
2022-08-29T11:16:33.954Z,36.85
2022-08-29T11:18:51.057Z,37.36
2022-08-29T11:21:08.141Z,37.84
2022-08-29T11:23:25.118Z,36.31
2022-08-29T11:25:42.522Z,37.29
2022-08-29T11:28:00.107Z,37.16
2022-08-29T11:30:17.105Z,37.41
2022-08-29T11:32:36.141Z,37.27
2022-08-29T11:34:53.352Z,35.84
2022-08-29T11:37:10.387Z,36.39
2022-08-29T11:39:27.683Z,36.10
2022-08-29T11:41:45.058Z,36.48
2022-08-29T11:44:02.334Z,36.50
2022-08-29T11:46:20.751Z,37.01
2022-08-29T11:48:39.978Z,35.70
2022-08-29T11:50:57.318Z,35.75
2022-08-29T11:53:16.771Z,36.54
2022-08-29T11:55:34.332Z,36.83
2022-08-29T11:57:51.275Z,35.07
2022-08-29T12:00:08.307Z,35.50
2022-08-29T12:02:25.277Z,35.63
2022-08-29T12:04:42.378Z,35.51
2022-08-29T12:07:01.391Z,35.49
2022-08-29T12:09:19.896Z,36.39
2022-08-29T12:11:39.058Z,35.55
2022-08-29T12:13:56.467Z,35.29
2022-08-29T12:16:14.856Z,35.62
2022-08-29T12:18:36.213Z,35.88
2022-08-29T12:20:53.531Z,35.51
2022-08-29T12:23:10.809Z,34.83
2022-08-29T12:25:27.790Z,35.13
2022-08-29T12:27:45.101Z,35.10
2022-08-29T12:30:02.280Z,35.03
2022-08-29T12:32:22.295Z,35.38
2022-08-29T12:34:40.866Z,33.74
2022-08-29T12:37:00.109Z,34.98
2022-08-29T12:39:19.524Z,35.02
2022-08-29T12:41:39.063Z,35.37
2022-08-29T12:43:56.827Z,34.73
2022-08-29T12:46:14.201Z,34.50
2022-08-29T12:48:31.304Z,34.50
2022-08-29T12:50:48.636Z,34.70
2022-08-29T12:53:05.867Z,34.49
2022-08-29T12:55:22.975Z,34.53
2022-08-29T12:57:45.973Z,34.66
2022-08-29T13:00:03.095Z,34.12
2022-08-29T13:02:20.551Z,34.46
2022-08-29T13:04:37.934Z,34.26
2022-08-29T13:06:55.011Z,33.46
2022-08-29T13:09:14.423Z,33.50
2022-08-29T13:11:34.641Z,33.95
2022-08-29T13:13:51.952Z,33.48
2022-08-29T13:16:09.345Z,34.04
2022-08-29T13:18:26.379Z,33.72
2022-08-29T13:20:43.683Z,33.39
2022-08-29T13:23:01.659Z,34.30
2022-08-29T13:25:18.810Z,34.21
2022-08-29T13:27:36.139Z,34.00
2022-08-29T13:29:53.597Z,34.84
2022-08-29T13:32:11.628Z,34.11
2022-08-29T13:34:28.939Z,34.17
2022-08-29T13:36:46.144Z,33.36
2022-08-29T13:39:03.188Z,33.71
2022-08-29T13:41:20.322Z,33.78
2022-08-29T13:43:37.689Z,33.21
2022-08-29T13:45:54.848Z,32.96
2022-08-29T13:48:12.174Z,32.68
2022-08-29T13:50:29.166Z,33.37
2022-08-29T13:52:46.479Z,33.44
2022-08-29T13:55:03.792Z,32.76
2022-08-29T13:57:21.085Z,32.51
2022-08-29T13:59:38.296Z,32.80
2022-08-29T14:02:11.418Z,32.63
2022-08-29T14:04:37.973Z,32.16
2022-08-29T14:06:56.388Z,33.65
2022-08-29T14:09:15.806Z,33.88
2022-08-29T14:11:32.877Z,33.03
2022-08-29T14:13:49.992Z,32.63
2022-08-29T14:16:08.045Z,33.00
2022-08-29T14:18:25.453Z,32.73
2022-08-29T14:20:43.884Z,33.00
2022-08-29T14:23:00.913Z,33.24
2022-08-29T14:25:19.398Z,32.78
2022-08-29T14:27:36.475Z,32.82
2022-08-29T14:29:53.598Z,32.47
2022-08-29T14:32:10.935Z,32.98
2022-08-29T14:34:32.170Z,33.04
2022-08-29T14:36:49.636Z,32.93
2022-08-29T14:39:06.633Z,31.95
2022-08-29T14:41:23.810Z,32.19
2022-08-29T14:43:40.888Z,31.72
2022-08-29T14:45:57.988Z,32.43
2022-08-29T14:48:15.479Z,32.91
2022-08-29T14:50:33.051Z,32.92
2022-08-29T14:52:50.414Z,32.41
2022-08-29T14:55:08.299Z,32.39
2022-08-29T14:57:26.607Z,32.72
2022-08-29T14:59:43.876Z,30.89
2022-08-29T15:02:00.898Z,32.13
2022-08-29T15:04:17.981Z,32.68
2022-08-29T15:06:38.857Z,33.10
2022-08-29T15:08:55.870Z,32.73
2022-08-29T15:11:12.948Z,32.12
2022-08-29T15:13:30.275Z,32.99
2022-08-29T15:15:47.303Z,32.84
2022-08-29T15:18:04.476Z,32.91
2022-08-29T15:20:38.768Z,33.00
2022-08-29T15:22:59.104Z,32.80
2022-08-29T15:25:16.192Z,32.67
2022-08-29T15:27:33.263Z,33.57
2022-08-29T15:29:50.309Z,33.12
2022-08-29T15:32:07.305Z,33.02
2022-08-29T15:34:24.232Z,33.10
2022-08-29T15:36:42.275Z,33.20
2022-08-29T15:38:59.535Z,33.20
2022-08-29T15:41:16.832Z,33.17
2022-08-29T15:43:34.083Z,33.25
2022-08-29T15:45:51.143Z,33.56
2022-08-29T15:48:11.697Z,32.94
2022-08-29T15:50:29.205Z,32.99
2022-08-29T15:52:46.470Z,33.23
2022-08-29T15:55:03.735Z,33.86
2022-08-29T15:57:20.978Z,33.85
2022-08-29T15:59:57.059Z,33.70
2022-08-29T16:02:15.076Z,33.55
2022-08-29T16:04:31.997Z,34.15
2022-08-29T16:06:49.219Z,33.99
2022-08-29T16:09:15.115Z,34.11
2022-08-29T16:11:32.906Z,33.89
2022-08-29T16:13:54.979Z,33.27
2022-08-29T16:16:19.604Z,33.54
2022-08-29T16:18:36.689Z,33.67
2022-08-29T16:20:56.720Z,34.52
2022-08-29T16:23:13.869Z,33.39
2022-08-29T16:25:31.238Z,34.28
2022-08-29T16:27:48.143Z,34.02
2022-08-29T16:30:05.207Z,34.65
2022-08-29T16:32:22.257Z,34.55
2022-08-29T16:34:39.213Z,35.86
2022-08-29T16:36:56.285Z,35.26
2022-08-29T16:39:13.310Z,36.08
2022-08-29T16:41:30.406Z,35.84
2022-08-29T16:43:47.470Z,34.60
2022-08-29T16:46:04.739Z,35.83
2022-08-29T16:48:22.139Z,35.05
2022-08-29T16:50:40.157Z,35.80
2022-08-29T16:52:58.674Z,36.01
2022-08-29T16:55:15.666Z,36.51
2022-08-29T16:57:32.744Z,37.00
2022-08-29T16:59:50.061Z,36.42
2022-08-29T17:02:07.357Z,36.66
2022-08-29T17:04:24.368Z,35.71
2022-08-29T17:06:41.397Z,36.33
2022-08-29T17:08:59.324Z,37.22
2022-08-29T17:11:16.602Z,38.34
2022-08-29T17:13:33.849Z,39.08
2022-08-29T17:15:52.928Z,37.56
2022-08-29T17:18:09.879Z,37.68
2022-08-29T17:20:26.788Z,37.49
2022-08-29T17:22:44.100Z,39.19
2022-08-29T17:25:02.348Z,39.42
2022-08-29T17:27:21.639Z,39.97
2022-08-29T17:29:39.284Z,40.79
2022-08-29T17:31:58.863Z,42.45
2022-08-29T17:34:16.153Z,42.58
2022-08-29T17:36:33.179Z,42.70
2022-08-29T17:38:50.436Z,44.16
2022-08-29T17:41:15.224Z,45.41
2022-08-29T17:43:34.246Z,44.63
2022-08-29T17:45:52.597Z,45.11
2022-08-29T17:48:09.739Z,45.94
2022-08-29T17:50:26.848Z,46.86
2022-08-29T17:52:44.045Z,46.91
2022-08-29T17:55:06.517Z,47.22
2022-08-29T17:57:24.315Z,47.81
2022-08-29T17:59:41.725Z,47.98
2022-08-29T18:01:58.800Z,48.36
2022-08-29T18:04:15.953Z,49.04
2022-08-29T18:06:33.321Z,48.84
2022-08-29T18:08:50.268Z,48.67
2022-08-29T18:11:07.253Z,49.12
2022-08-29T18:13:24.165Z,49.87
2022-08-29T18:15:42.449Z,49.96
2022-08-29T18:17:59.362Z,49.54
2022-08-29T18:20:16.632Z,51.07
2022-08-29T18:22:33.690Z,50.43
2022-08-29T18:24:50.914Z,50.01
2022-08-29T18:27:08.407Z,51.60
2022-08-29T18:29:25.335Z,52.00
2022-08-29T18:31:42.320Z,51.15
2022-08-29T18:34:00.995Z,52.17
2022-08-29T18:36:19.539Z,52.37
2022-08-29T18:38:36.475Z,52.35
2022-08-29T18:40:53.863Z,51.70
2022-08-29T18:43:11.335Z,52.15
2022-08-29T18:45:29.641Z,53.92
2022-08-29T18:47:46.935Z,53.09
2022-08-29T18:50:04.218Z,54.32
2022-08-29T18:52:21.853Z,53.01
2022-08-29T18:54:39.828Z,54.46
2022-08-29T18:56:56.866Z,54.28
2022-08-29T18:59:14.140Z,54.52
2022-08-29T19:01:31.218Z,54.52
2022-08-29T19:03:48.335Z,55.32
2022-08-29T19:06:05.788Z,55.31
2022-08-29T19:08:22.731Z,54.74
2022-08-29T19:10:39.748Z,55.88
2022-08-29T19:12:57.066Z,56.32
2022-08-29T19:15:14.062Z,56.07
2022-08-29T19:17:31.370Z,55.91
2022-08-29T19:19:48.393Z,56.67
2022-08-29T19:22:12.467Z,56.96
2022-08-29T19:24:29.784Z,56.96
2022-08-29T19:26:46.719Z,56.66
2022-08-29T19:29:03.809Z,57.50
2022-08-29T19:31:21.181Z,57.41
2022-08-29T19:33:39.172Z,57.06
2022-08-29T19:35:56.439Z,57.63
2022-08-29T19:38:13.759Z,57.24
2022-08-29T19:40:34.997Z,57.44
2022-08-29T19:42:53.297Z,58.04
2022-08-29T19:45:10.370Z,58.73
2022-08-29T19:47:27.625Z,58.41
2022-08-29T19:49:45.591Z,59.14
2022-08-29T19:52:02.561Z,59.19
2022-08-29T19:54:19.619Z,59.23
2022-08-29T19:56:36.565Z,58.92
2022-08-29T19:58:54.334Z,59.03
2022-08-29T20:01:12.374Z,60.52
2022-08-29T20:03:29.794Z,60.82
2022-08-29T20:05:47.084Z,60.14
2022-08-29T20:08:04.009Z,60.91
2022-08-29T20:10:21.901Z,60.62
2022-08-29T20:12:39.727Z,61.06
2022-08-29T20:14:56.957Z,59.89
2022-08-29T20:17:13.888Z,61.11
2022-08-29T20:19:30.855Z,62.41
2022-08-29T20:21:47.915Z,62.36
2022-08-29T20:24:04.933Z,62.08
2022-08-29T20:26:22.165Z,60.59
2022-08-29T20:28:39.202Z,60.92
2022-08-29T20:30:56.118Z,62.37
2022-08-29T20:33:14.051Z,61.53
2022-08-29T20:35:31.145Z,61.75
2022-08-29T20:37:49.322Z,62.28
2022-08-29T20:40:06.632Z,63.83
2022-08-29T20:42:23.902Z,62.92
2022-08-29T20:44:41.012Z,62.66
2022-08-29T20:46:58.068Z,64.45
2022-08-29T20:49:15.340Z,65.08
2022-08-29T20:51:32.619Z,65.24
2022-08-29T20:53:49.936Z,63.33
2022-08-29T20:56:06.993Z,65.60
2022-08-29T20:58:23.997Z,64.08
2022-08-29T21:00:42.444Z,65.46
2022-08-29T21:02:59.540Z,63.75
2022-08-29T21:05:16.866Z,63.66
2022-08-29T21:07:35.327Z,65.38
2022-08-29T21:09:52.574Z,64.64
2022-08-29T21:12:09.562Z,63.99
2022-08-29T21:14:26.498Z,64.31
2022-08-29T21:16:43.750Z,64.45
2022-08-29T21:19:02.068Z,65.50
2022-08-29T21:21:22.000Z,65.00
2022-08-29T21:23:41.658Z,66.55
2022-08-29T21:25:58.761Z,66.88
2022-08-29T21:28:15.794Z,66.03
2022-08-29T21:30:32.732Z,66.65
2022-08-29T21:32:49.806Z,65.49
2022-08-29T21:35:07.766Z,66.24
2022-08-29T21:37:25.064Z,66.50
2022-08-29T21:39:42.128Z,67.33
2022-08-29T21:42:00.964Z,66.67
2022-08-29T21:44:20.075Z,66.60
2022-08-29T21:46:37.168Z,67.04
2022-08-29T21:48:56.661Z,66.92
2022-08-29T21:51:14.193Z,66.66
2022-08-29T21:53:31.499Z,67.08
2022-08-29T21:55:49.944Z,68.02
2022-08-29T21:58:08.174Z,67.83
2022-08-29T22:00:25.522Z,67.74
2022-08-29T22:02:42.601Z,68.04
2022-08-29T22:04:59.719Z,67.88
2022-08-29T22:07:16.805Z,67.95
2022-08-29T22:09:33.792Z,68.35
2022-08-29T22:11:51.066Z,68.38
2022-08-29T22:14:07.970Z,68.83
2022-08-29T22:16:25.023Z,69.14
2022-08-29T22:18:42.011Z,68.87
2022-08-29T22:20:58.966Z,68.82
2022-08-29T22:23:17.518Z,69.17
2022-08-29T22:25:37.062Z,68.78
2022-08-29T22:27:54.406Z,69.24
2022-08-29T22:30:15.541Z,69.77
2022-08-29T22:32:35.913Z,69.19
2022-08-29T22:34:53.152Z,69.91
2022-08-29T22:37:10.397Z,69.78
2022-08-29T22:39:27.340Z,70.09
2022-08-29T22:41:47.524Z,70.33
2022-08-29T22:46:41.708Z,70.64
2022-08-29T22:48:58.691Z,69.92
2022-08-29T22:51:15.993Z,70.60
2022-08-29T22:53:33.055Z,70.11
2022-08-29T22:55:50.010Z,70.78
2022-08-29T22:58:06.943Z,70.29
2022-08-29T23:00:23.879Z,70.46
2022-08-29T23:02:41.257Z,70.15
2022-08-29T23:04:58.193Z,70.60
2022-08-29T23:07:15.166Z,70.84
2022-08-29T23:09:35.392Z,71.11
2022-08-29T23:11:52.985Z,71.43
2022-08-29T23:14:12.443Z,71.28
2022-08-29T23:16:29.675Z,72.30
2022-08-29T23:18:46.553Z,71.25
2022-08-29T23:21:03.613Z,71.78
2022-08-29T23:23:21.672Z,72.42
2022-08-29T23:25:38.605Z,72.31
2022-08-29T23:27:55.913Z,72.56
2022-08-29T23:30:13.170Z,71.15
2022-08-29T23:32:30.475Z,71.83
2022-08-29T23:34:47.441Z,72.66
2022-08-29T23:37:04.469Z,72.21
2022-08-29T23:39:21.844Z,72.65
2022-08-29T23:41:39.130Z,72.88
2022-08-29T23:43:55.987Z,72.67
2022-08-29T23:46:13.337Z,72.97
2022-08-29T23:48:30.444Z,73.13
2022-08-29T23:50:48.994Z,73.47
2022-08-29T23:53:05.997Z,72.25
2022-08-29T23:55:23.100Z,73.01
2022-08-29T23:57:42.679Z,73.60
2022-08-29T23:59:59.681Z,73.28
